^^
Lisbon, NH - Weather Station Historical Data
Daily Summary for October 5, 2021 Units:  English    Metric   Both
Daily Weekly Monthly Yearly
  High: Low: Average:
Temperature: 62.7 °F 52.6 °F 56.9 °F
Dew Point: 58.9 °F 52.6 °F 54.9 °F
Humidity: 100% 76.9% 94%
Wind Speed: 2.4mph 0mph 0.3mph
Wind Gust: 6mph - -
Wind- - South
Pressure: 30.30 in 30.15 in -
Precipitation: 0.05 in    
 
 
Tabular Data for October 5, 2021
Time Temperature Dew Point Pressure Wind Wind Speed Wind Gust Humidity Rainfall Rate (Hourly) solar
00:04 54.4 °F 54.4 °F 30.15 in SW 0.8 mph 2 mph 100% 0.01 in 0 W/m2
00:09 54.4 °F 54.4 °F 30.15 in SW 1.2 mph 3 mph 100% 0.02 in 0 W/m2
00:14 54.3 °F 54.3 °F 30.15 in SW 0.2 mph 2 mph 100% 0.02 in 0 W/m2
00:19 54.2 °F 54.2 °F 30.15 in SW 0.1 mph 1 mph 100% 0.02 in 0 W/m2
00:24 54.2 °F 54.2 °F 30.15 in SW 0.8 mph 3 mph 100% 0.02 in 0 W/m2
00:29 54.1 °F 54.1 °F 30.15 in SSW 0.8 mph 6 mph 100% 0.02 in 0 W/m2
00:34 54.1 °F 54.1 °F 30.15 in SW 0.7 mph 3 mph 100% 0.03 in 0 W/m2
00:39 53.9 °F 53.9 °F 30.15 in WSW 0.4 mph 2 mph 100% 0.03 in 0 W/m2
00:44 53.9 °F 53.9 °F 30.15 in WSW 0.2 mph 2 mph 100% 0.03 in 0 W/m2
00:49 53.8 °F 53.8 °F 30.15 in WSW 0.4 mph 1 mph 100% 0.02 in 0 W/m2
00:54 53.8 °F 53.8 °F 30.15 in NW 0.3 mph 1 mph 100% 0.02 in 0 W/m2
00:59 53.6 °F 53.6 °F 30.16 in WSW 0.1 mph 1 mph 100% 0.02 in 0 W/m2
01:04 53.5 °F 53.5 °F 30.16 in Calm     100% 0.03 in 0 W/m2
01:09 53.5 °F 53.5 °F 30.16 in Calm     100% 0.03 in 0 W/m2
01:14 53.3 °F 53.3 °F 30.16 in WSW 0.1 mph 1 mph 100% 0.03 in 0 W/m2
01:19 53.2 °F 53.2 °F 30.16 in Calm     100% 0.02 in 0 W/m2
01:24 53.2 °F 53.2 °F 30.16 in Calm     100% 0.02 in 0 W/m2
01:29 53.2 °F 53.2 °F 30.16 in WSW 0.1 mph 1 mph 100% 0.03 in 0 W/m2
01:34 53.1 °F 53.1 °F 30.16 in WSW 0.1 mph 1 mph 100% 0.03 in 0 W/m2
01:39 53 °F 53 °F 30.16 in SW 0.1 mph 1 mph 100% 0.03 in 0 W/m2
01:44 52.9 °F 52.9 °F 30.17 in SW 0.2 mph 1 mph 100% 0.03 in 0 W/m2
01:49 52.9 °F 52.9 °F 30.17 in Calm     100% 0.02 in 0 W/m2
01:54 52.9 °F 52.9 °F 30.17 in Calm     100% 0.02 in 0 W/m2
01:59 52.8 °F 52.8 °F 30.17 in SW 0.1 mph 1 mph 100% 0.02 in 0 W/m2
02:04 52.8 °F 52.8 °F 30.17 in SSW 0.1 mph 2 mph 100% 0.02 in 0 W/m2
02:09 52.8 °F 52.8 °F 30.17 in Calm   1 mph 100% 0.02 in 0 W/m2
02:14 52.8 °F 52.8 °F 30.17 in Calm     100% 0.02 in 0 W/m2
02:19 52.8 °F 52.8 °F 30.17 in Calm     100% 0.01 in 0 W/m2
02:24 52.8 °F 52.8 °F 30.17 in Calm   1 mph 100% 0.01 in 0 W/m2
02:29 52.8 °F 52.8 °F 30.17 in SW 0.2 mph 2 mph 100% 0.01 in 0 W/m2
02:34 52.8 °F 52.8 °F 30.17 in SW 0.1 mph 2 mph 100% 0.01 in 0 W/m2
02:39 52.8 °F 52.8 °F 30.17 in SW 0.1 mph 2 mph 100% 0.00 in 0 W/m2
02:44 52.8 °F 52.8 °F 30.17 in SW 0.2 mph 1 mph 100% 0.01 in 0 W/m2
02:49 52.8 °F 52.8 °F 30.17 in Calm   1 mph 100% 0.01 in 0 W/m2
02:54 52.8 °F 52.8 °F 30.17 in SW 0.3 mph 1 mph 100% 0.01 in 0 W/m2
02:59 52.6 °F 52.6 °F 30.17 in SW 0.5 mph 2 mph 100% 0.01 in 0 W/m2
03:04 52.6 °F 52.6 °F 30.16 in SW 0.1 mph 1 mph 100% 0.01 in 0 W/m2
03:09 52.6 °F 52.6 °F 30.16 in SW 0.4 mph 2 mph 100% 0.01 in 0 W/m2
03:14 52.6 °F 52.6 °F 30.16 in Calm     100% 0.01 in 0 W/m2
03:19 52.6 °F 52.6 °F 30.16 in Calm     100% 0.01 in 0 W/m2
03:24 52.6 °F 52.6 °F 30.16 in Calm     100% 0.01 in 0 W/m2
03:29 52.6 °F 52.6 °F 30.16 in Calm     100% 0.01 in 0 W/m2
03:34 52.6 °F 52.6 °F 30.16 in Calm     100% 0.01 in 0 W/m2
03:39 52.6 °F 52.6 °F 30.16 in Calm     100% 0.01 in 0 W/m2
03:44 52.6 °F 52.6 °F 30.16 in Calm     100% 0.01 in 0 W/m2
03:49 52.6 °F 52.6 °F 30.16 in Calm     100% 0.01 in 0 W/m2
03:54 52.6 °F 52.6 °F 30.16 in Calm     100% 0.01 in 0 W/m2
03:59 52.6 °F 52.6 °F 30.17 in Calm     100% 0.00 in 0 W/m2
04:04 52.6 °F 52.6 °F 30.17 in Calm     100% 0.00 in 0 W/m2
04:09 52.7 °F 52.7 °F 30.17 in Calm     100% 0.00 in 0 W/m2
04:14 52.7 °F 52.7 °F 30.17 in Calm     100% 0.00 in 0 W/m2
04:19 52.7 °F 52.7 °F 30.17 in Calm     100% 0.00 in 0 W/m2
04:24 52.8 °F 52.8 °F 30.17 in Calm     100% 0.00 in 0 W/m2
04:29 52.8 °F 52.8 °F 30.17 in Calm     100% 0.00 in 0 W/m2
04:34 52.8 °F 52.8 °F 30.17 in Calm   1 mph 100% 0.00 in 0 W/m2
04:39 52.8 °F 52.8 °F 30.17 in Calm     100% 0.00 in 0 W/m2
04:44 52.8 °F 52.8 °F 30.18 in Calm     100% 0.00 in 0 W/m2
04:49 52.8 °F 52.8 °F 30.18 in Calm     100% 0.00 in 0 W/m2
04:54 52.8 °F 52.8 °F 30.18 in Calm     100% 0.00 in 0 W/m2
04:59 52.8 °F 52.8 °F 30.18 in Calm     100% 0.00 in 0 W/m2
05:04 52.9 °F 52.9 °F 30.18 in Calm   1 mph 100% 0.00 in 0 W/m2
05:09 52.9 °F 52.9 °F 30.18 in Calm     100% 0.00 in 0 W/m2
05:14 52.9 °F 52.9 °F 30.18 in Calm     100% 0.00 in 0 W/m2
05:19 52.9 °F 52.9 °F 30.18 in Calm     100% 0.00 in 0 W/m2
05:24 52.9 °F 52.9 °F 30.18 in Calm     100% 0.00 in 0 W/m2
05:29 52.9 °F 52.9 °F 30.18 in Calm     100% 0.00 in 0 W/m2
05:34 52.9 °F 52.9 °F 30.18 in Calm     100% 0.00 in 0 W/m2
05:39 52.9 °F 52.9 °F 30.18 in Calm     100% 0.00 in 0 W/m2
05:44 52.9 °F 52.9 °F 30.18 in Calm     100% 0.00 in 0 W/m2
05:49 52.9 °F 52.9 °F 30.18 in Calm     100% 0.00 in 0 W/m2
05:54 52.9 °F 52.9 °F 30.18 in Calm     100% 0.00 in 0 W/m2
05:59 52.9 °F 52.9 °F 30.18 in Calm     100% 0.00 in 0 W/m2
06:04 52.9 °F 52.9 °F 30.18 in Calm     100% 0.00 in 0 W/m2
06:09 52.9 °F 52.9 °F 30.18 in Calm     100% 0.00 in 0 W/m2
06:14 53 °F 53 °F 30.18 in Calm     100% 0.00 in 0 W/m2
06:19 53 °F 53 °F 30.18 in Calm     100% 0.00 in 0 W/m2
06:24 52.9 °F 52.9 °F 30.18 in Calm     100% 0.00 in 0 W/m2
06:29 52.9 °F 52.9 °F 30.19 in Calm     100% 0.00 in 0 W/m2
06:34 52.9 °F 52.9 °F 30.19 in Calm     100% 0.00 in 0 W/m2
06:39 53 °F 53 °F 30.19 in Calm     100% 0.00 in 0 W/m2
06:44 53 °F 53 °F 30.19 in Calm     100% 0.00 in 0 W/m2
06:49 53.1 °F 53.1 °F 30.19 in Calm     100% 0.00 in 0 W/m2
06:54 53.1 °F 53.1 °F 30.19 in Calm     100% 0.00 in 0 W/m2
06:59 53.1 °F 53.1 °F 30.20 in Calm     100% 0.00 in 5 W/m2
07:04 53 °F 53 °F 30.20 in Calm     100% 0.00 in 5 W/m2
07:09 52.9 °F 52.9 °F 30.20 in Calm     100% 0.00 in 5 W/m2
07:14 53 °F 53 °F 30.21 in Calm     100% 0.00 in 5 W/m2
07:19 53.1 °F 53.1 °F 30.21 in Calm     100% 0.00 in 7 W/m2
07:24 53.1 °F 53.1 °F 30.21 in Calm     100% 0.00 in 7 W/m2
07:29 53.1 °F 53.1 °F 30.22 in Calm     100% 0.00 in 11 W/m2
07:34 53.2 °F 53.2 °F 30.22 in Calm     100% 0.00 in 14 W/m2
07:39 53.2 °F 53.2 °F 30.22 in Calm     100% 0.00 in 18 W/m2
07:44 53.2 °F 53.2 °F 30.22 in SW 0.1 mph 1 mph 100% 0.00 in 19 W/m2
07:49 53.2 °F 53.2 °F 30.22 in Calm   1 mph 100% 0.00 in 19 W/m2
07:54 53.3 °F 53.3 °F 30.22 in Calm     100% 0.00 in 23 W/m2
07:59 53.3 °F 53.3 °F 30.23 in Calm     100% 0.00 in 25 W/m2
08:04 53.5 °F 53.5 °F 30.23 in Calm     100% 0.00 in 28 W/m2
08:09 53.5 °F 53.5 °F 30.23 in Calm     100% 0.00 in 30 W/m2
08:14 53.5 °F 53.5 °F 30.23 in Calm   1 mph 100% 0.00 in 33 W/m2
08:19 53.5 °F 53.5 °F 30.23 in Calm   1 mph 100% 0.00 in 39 W/m2
08:24 53.6 °F 53.6 °F 30.23 in Calm     100% 0.00 in 44 W/m2
08:29 53.6 °F 53.6 °F 30.23 in Calm     100% 0.00 in 44 W/m2
08:34 53.8 °F 53.8 °F 30.23 in SW 0.9 mph 2 mph 100% 0.00 in 56 W/m2
08:39 53.7 °F 53.7 °F 30.23 in SW 0.4 mph 2 mph 100% 0.00 in 60 W/m2
08:44 53.7 °F 53.7 °F 30.23 in SW 0.3 mph 2 mph 100% 0.00 in 65 W/m2
08:49 53.8 °F 53.8 °F 30.23 in Calm     100% 0.00 in 76 W/m2
08:54 53.9 °F 53.9 °F 30.23 in Calm   1 mph 100% 0.00 in 97 W/m2
08:59 54.1 °F 54.1 °F 30.23 in SW 0.7 mph 2 mph 100% 0.00 in 139 W/m2
09:04 54.1 °F 54.1 °F 30.23 in SW 0.3 mph 1 mph 100% 0.00 in 171 W/m2
09:09 54.2 °F 54.2 °F 30.23 in Calm   1 mph 100% 0.00 in 171 W/m2
09:14 54.6 °F 54.6 °F 30.23 in Calm     100% 0.00 in 135 W/m2
09:19 54.9 °F 54.9 °F 30.23 in SW 0.2 mph 1 mph 100% 0.00 in 128 W/m2
09:24 55 °F 55 °F 30.23 in Calm   1 mph 100% 0.00 in 125 W/m2
09:29 55.1 °F 55.1 °F 30.23 in Calm   1 mph 100% 0.00 in 135 W/m2
09:34 55.2 °F 55.2 °F 30.23 in SW 0.2 mph 2 mph 100% 0.00 in 165 W/m2
09:39 55.3 °F 55.3 °F 30.23 in SW 0.2 mph 1 mph 100% 0.00 in 197 W/m2
09:44 55.4 °F 55.4 °F 30.24 in SSW 0.9 mph 2 mph 100% 0.00 in 197 W/m2
09:49 55.3 °F 55.3 °F 30.24 in SSW 1 mph 3 mph 100% 0.00 in 190 W/m2
09:54 55.3 °F 55.3 °F 30.24 in SSW 1.4 mph 3 mph 100% 0.00 in 187 W/m2
09:59 55.4 °F 55.4 °F 30.24 in SSW 1.5 mph 3 mph 100% 0.00 in 209 W/m2
10:04 55.4 °F 55.4 °F 30.24 in SSW 0.5 mph 3 mph 100% 0.00 in 209 W/m2
10:09 55.7 °F 55.7 °F 30.24 in SSW 1 mph 3 mph 100% 0.00 in 204 W/m2
10:14 55.9 °F 55.9 °F 30.24 in SW 1.2 mph 2 mph 100% 0.00 in 260 W/m2
10:19 56.2 °F 56.2 °F 30.24 in SSW 1.2 mph 3 mph 100% 0.00 in 287 W/m2
10:24 56.5 °F 56.4 °F 30.24 in SSW 1.2 mph 3 mph 99.4% 0.00 in 318 W/m2
10:29 56.6 °F 55.9 °F 30.24 in South 1.3 mph 2 mph 97.3% 0.00 in 384 W/m2
10:34 57 °F 55.8 °F 30.24 in ESE 1.1 mph 2 mph 95.8% 0.00 in 389 W/m2
10:39 57.3 °F 55.7 °F 30.24 in East 1.1 mph 2 mph 94.2% 0.00 in 338 W/m2
10:44 57.5 °F 55.5 °F 30.24 in ESE 0.8 mph 2 mph 93.1% 0.00 in 296 W/m2
10:49 57.6 °F 55.5 °F 30.24 in SSW 1.5 mph 2 mph 92.6% 0.00 in 296 W/m2
10:54 57.6 °F 55 °F 30.24 in SSW 0.1 mph 2 mph 91.1% 0.00 in 310 W/m2
10:59 57.5 °F 54.7 °F 30.24 in South 1.1 mph 2 mph 90.1% 0.00 in 287 W/m2
11:04 57.3 °F 54.1 °F 30.24 in South 0.2 mph 2 mph 89% 0.00 in 280 W/m2
11:09 57.7 °F 54.5 °F 30.24 in Calm   1 mph 89% 0.00 in 331 W/m2
11:14 58.2 °F 54.7 °F 30.24 in SE 0.5 mph 2 mph 88% 0.00 in 308 W/m2
11:19 58.5 °F 54.5 °F 30.24 in East 1 mph 3 mph 86.6% 0.00 in 320 W/m2
11:24 58.6 °F 54.5 °F 30.24 in ENE 1.7 mph 3 mph 86% 0.00 in 322 W/m2
11:29 58.9 °F 54.4 °F 30.24 in ENE 1.4 mph 3 mph 85% 0.00 in 331 W/m2
11:34 59.2 °F 54.3 °F 30.24 in ENE 0.8 mph 3 mph 83.7% 0.00 in 366 W/m2
11:39 59.5 °F 54.3 °F 30.24 in ENE 1.2 mph 2 mph 82.8% 0.00 in 370 W/m2
11:44 59.5 °F 53.5 °F 30.24 in East 0.5 mph 2 mph 80.5% 0.00 in 320 W/m2
11:49 59.4 °F 53.5 °F 30.24 in SE 0.4 mph 2 mph 80.6% 0.00 in 306 W/m2
11:54 59.5 °F 53.8 °F 30.24 in SSW 0.3 mph 2 mph 81.4% 0.00 in 324 W/m2
11:59 59.9 °F 53.9 °F 30.24 in SSW 1.2 mph 3 mph 80.6% 0.00 in 317 W/m2
12:04 59.8 °F 53.3 °F 30.24 in ESE 1.2 mph 3 mph 79% 0.00 in 289 W/m2
12:09 59.7 °F 53.2 °F 30.24 in East 0.8 mph 2 mph 79.1% 0.00 in 192 W/m2
12:14 59.8 °F 53.7 °F 30.24 in South 0.5 mph 2 mph 80.1% 0.00 in 183 W/m2
12:19 59.9 °F 54.3 °F 30.24 in South 0.3 mph 2 mph 81.8% 0.00 in 250 W/m2
12:24 59.9 °F 54.1 °F 30.24 in SSW 1.2 mph 3 mph 81.2% 0.00 in 264 W/m2
12:29 59.9 °F 54 °F 30.24 in SW 0.6 mph 2 mph 80.6% 0.00 in 260 W/m2
12:34 60.2 °F 54.6 °F 30.24 in SW 0.8 mph 3 mph 81.7% 0.00 in 243 W/m2
12:39 60.3 °F 54.6 °F 30.24 in SSW 1.6 mph 5 mph 81.5% 0.00 in 225 W/m2
12:44 60.2 °F 54.5 °F 30.24 in South 0.6 mph 2 mph 81.4% 0.00 in 209 W/m2
12:49 60.4 °F 54.9 °F 30.24 in South 0.3 mph 2 mph 82% 0.00 in 201 W/m2
12:54 60.4 °F 54.7 °F 30.24 in SSW 1 mph 3 mph 81.4% 0.00 in 199 W/m2
12:59 60.3 °F 54.4 °F 30.24 in South 0.8 mph 3 mph 81% 0.00 in 194 W/m2
13:04 60.3 °F 54.9 °F 30.24 in SSW 1.1 mph 4 mph 82.4% 0.00 in 181 W/m2
13:09 60.3 °F 55 °F 30.24 in SSW 1 mph 3 mph 82.6% 0.00 in 172 W/m2
13:14 60.4 °F 55.6 °F 30.24 in SW 0.9 mph 4 mph 84.1% 0.00 in 162 W/m2
13:19 60.4 °F 55.6 °F 30.24 in SSW 2.1 mph 5 mph 84% 0.00 in 155 W/m2
13:24 60.2 °F 55.3 °F 30.24 in SW 2.4 mph 6 mph 83.7% 0.00 in 158 W/m2
13:29 60.1 °F 55.3 °F 30.24 in SSW 1.9 mph 4 mph 84% 0.00 in 158 W/m2
13:34 60.1 °F 55.3 °F 30.24 in SW 0.5 mph 3 mph 84.2% 0.00 in 162 W/m2
13:39 60.1 °F 55.6 °F 30.24 in SSW 1.1 mph 3 mph 84.9% 0.00 in 162 W/m2
13:44 60.1 °F 55.2 °F 30.24 in SW 1.9 mph 3 mph 83.9% 0.00 in 167 W/m2
13:49 60 °F 54.9 °F 30.24 in SSW 2.4 mph 5 mph 83.2% 0.00 in 192 W/m2
13:54 59.9 °F 54.8 °F 30.24 in SSW 2 mph 5 mph 83.2% 0.00 in 211 W/m2
13:59 60 °F 54.9 °F 30.24 in SSW 1.4 mph 5 mph 83% 0.00 in 213 W/m2
14:04 60.1 °F 54.9 °F 30.23 in SSW 1.8 mph 4 mph 83% 0.00 in 213 W/m2
14:09 60.2 °F 54.7 °F 30.23 in SSW 1.4 mph 5 mph 82.1% 0.00 in 229 W/m2
14:14 60.3 °F 55 °F 30.23 in SSW 0.6 mph 4 mph 82.4% 0.00 in 229 W/m2
14:19 60.5 °F 54.8 °F 30.23 in SSW 1.4 mph 4 mph 81.3% 0.00 in 236 W/m2
14:24 60.8 °F 55 °F 30.23 in SSW 0.2 mph 4 mph 81.1% 0.00 in 220 W/m2
14:29 61.1 °F 55.2 °F 30.23 in SSW 0.1 mph 2 mph 81% 0.00 in 225 W/m2
14:34 61.2 °F 55.1 °F 30.23 in SSW 0.2 mph 1 mph 80.2% 0.00 in 222 W/m2
14:39 61.3 °F 55.1 °F 30.23 in SW 0.3 mph 2 mph 80.1% 0.00 in 216 W/m2
14:44 61.5 °F 55.3 °F 30.23 in SW 0.9 mph 2 mph 80.1% 0.00 in 209 W/m2
14:49 61.6 °F 55.4 °F 30.23 in SSE 0.1 mph 2 mph 80.1% 0.00 in 201 W/m2
14:54 61.6 °F 55 °F 30.23 in SW 1 mph 3 mph 79% 0.00 in 183 W/m2
14:59 61.5 °F 55 °F 30.23 in SW 2 mph 4 mph 79.1% 0.00 in 174 W/m2
15:04 61.3 °F 54.5 °F 30.23 in SSW 1.3 mph 3 mph 78.3% 0.00 in 178 W/m2
15:09 61.5 °F 55.1 °F 30.23 in SSW 0.2 mph 2 mph 79.3% 0.00 in 178 W/m2
15:14 61.6 °F 54.9 °F 30.23 in SW 0.7 mph 2 mph 78.6% 0.00 in 171 W/m2
15:19 61.8 °F 54.8 °F 30.23 in SSW 0.6 mph 3 mph 77.8% 0.00 in 172 W/m2
15:24 61.9 °F 55 °F 30.23 in SSW 0.6 mph 2 mph 77.8% 0.00 in 172 W/m2
15:29 62 °F 54.9 °F 30.23 in SSW 0.7 mph 2 mph 77.5% 0.00 in 169 W/m2
15:34 62 °F 54.8 °F 30.23 in SSW 0.6 mph 1 mph 77% 0.00 in 169 W/m2
15:39 62.1 °F 54.8 °F 30.23 in East 1 mph 2 mph 77% 0.00 in 160 W/m2
15:44 62.2 °F 55.1 °F 30.23 in NE 0.2 mph 2 mph 77.4% 0.00 in 146 W/m2
15:49 62.2 °F 55 °F 30.22 in NE 0.9 mph 2 mph 77.1% 0.00 in 141 W/m2
15:54 62.1 °F 54.9 °F 30.22 in NE 0.5 mph 2 mph 77.3% 0.00 in 135 W/m2
15:59 62.1 °F 55 °F 30.22 in Calm     77.5% 0.00 in 130 W/m2
16:04 62.2 °F 54.8 °F 30.22 in Calm     76.9% 0.00 in 121 W/m2
16:09 62.3 °F 55.3 °F 30.22 in ENE 0.1 mph 1 mph 77.7% 0.00 in 114 W/m2
16:14 62.4 °F 55.7 °F 30.23 in ENE 0.1 mph 1 mph 78.6% 0.00 in 111 W/m2
16:19 62.4 °F 55.7 °F 30.23 in ENE 0.1 mph 1 mph 78.7% 0.00 in 114 W/m2
16:24 62.4 °F 55.1 °F 30.23 in ENE 0.1 mph 1 mph 77.2% 0.00 in 114 W/m2
16:29 62.3 °F 55.2 °F 30.23 in Calm     77.6% 0.00 in 109 W/m2
16:34 62.3 °F 55.5 °F 30.23 in ESE 0.1 mph 1 mph 78.4% 0.00 in 106 W/m2
16:39 62.3 °F 55.7 °F 30.23 in South 0.2 mph 1 mph 78.9% 0.00 in 100 W/m2
16:44 62.4 °F 56.2 °F 30.23 in East 0.6 mph 2 mph 80.1% 0.00 in 97 W/m2
16:49 62.4 °F 55.8 °F 30.23 in ENE 0.1 mph 1 mph 79% 0.00 in 88 W/m2
16:54 62.4 °F 55.5 °F 30.23 in Calm     78.2% 0.00 in 79 W/m2
16:59 62.4 °F 55.9 °F 30.23 in Calm     79.2% 0.00 in 74 W/m2
17:04 62.6 °F 56.7 °F 30.23 in Calm     81% 0.00 in 63 W/m2
17:09 62.7 °F 57.1 °F 30.23 in Calm     82% 0.00 in 56 W/m2
17:14 62.7 °F 57.3 °F 30.23 in Calm     82.5% 0.00 in 51 W/m2
17:19 62.6 °F 57.4 °F 30.23 in Calm     82.9% 0.00 in 49 W/m2
17:24 62.6 °F 57.3 °F 30.23 in Calm     82.8% 0.00 in 48 W/m2
17:29 62.6 °F 58 °F 30.24 in Calm     85% 0.00 in 40 W/m2
17:34 62.6 °F 58.4 °F 30.24 in Calm     86.1% 0.00 in 35 W/m2
17:39 62.4 °F 58.5 °F 30.24 in Calm     87.1% 0.00 in 32 W/m2
17:44 62.3 °F 58.7 °F 30.24 in Calm     88% 0.00 in 25 W/m2
17:49 62.1 °F 58.8 °F 30.24 in Calm     88.9% 0.00 in 16 W/m2
17:54 61.9 °F 58.9 °F 30.24 in Calm     89.8% 0.00 in 14 W/m2
17:59 61.6 °F 58.7 °F 30.24 in Calm     90.3% 0.00 in 12 W/m2
18:04 61.2 °F 58.6 °F 30.24 in Calm     91% 0.00 in 11 W/m2
18:09 60.9 °F 58.6 °F 30.24 in Calm     91.9% 0.00 in 11 W/m2
18:14 60.7 °F 58.5 °F 30.25 in Calm     92.3% 0.00 in 9 W/m2
18:19 60.5 °F 58.5 °F 30.25 in Calm     93% 0.00 in 7 W/m2
18:24 60.4 °F 58.4 °F 30.25 in Calm     93.2% 0.00 in 5 W/m2
18:29 60.2 °F 58.4 °F 30.25 in Calm     94% 0.00 in 5 W/m2
18:34 60 °F 58.3 °F 30.25 in Calm     94% 0.00 in 0 W/m2
18:39 59.8 °F 58.3 °F 30.25 in Calm     94.8% 0.00 in 0 W/m2
18:44 59.6 °F 58.2 °F 30.25 in Calm     95% 0.00 in 0 W/m2
18:49 59.5 °F 58.2 °F 30.25 in Calm     95.5% 0.00 in 0 W/m2
18:54 59.3 °F 58.2 °F 30.25 in Calm     96% 0.00 in 0 W/m2
18:59 59.3 °F 58.2 °F 30.26 in Calm     96% 0.00 in 0 W/m2
19:04 59.2 °F 58.1 °F 30.26 in Calm     96% 0.00 in 0 W/m2
19:09 59.2 °F 58.2 °F 30.26 in Calm     96.6% 0.00 in 0 W/m2
19:14 59.2 °F 58.3 °F 30.26 in Calm     97% 0.00 in 0 W/m2
19:19 59 °F 58.2 °F 30.26 in Calm     97% 0.00 in 0 W/m2
19:24 59 °F 58.2 °F 30.26 in Calm     97% 0.00 in 0 W/m2
19:29 58.9 °F 58.1 °F 30.26 in Calm     97% 0.00 in 0 W/m2
19:34 58.9 °F 58.3 °F 30.26 in Calm     97.8% 0.00 in 0 W/m2
19:39 58.7 °F 58.2 °F 30.26 in Calm     98% 0.00 in 0 W/m2
19:44 58.7 °F 58.1 °F 30.27 in Calm     98% 0.00 in 0 W/m2
19:49 58.7 °F 58.1 °F 30.27 in Calm     98% 0.00 in 0 W/m2
19:54 58.6 °F 58 °F 30.27 in Calm     98% 0.00 in 0 W/m2
19:59 58.5 °F 58 °F 30.27 in Calm     98% 0.00 in 0 W/m2
20:04 58.4 °F 58.1 °F 30.27 in Calm     98.9% 0.00 in 0 W/m2
20:09 58.4 °F 58.1 °F 30.27 in Calm     99% 0.00 in 0 W/m2
20:14 58.3 °F 58 °F 30.27 in Calm     99% 0.00 in 0 W/m2
20:19 58.3 °F 58 °F 30.27 in Calm     99% 0.00 in 0 W/m2
20:24 58.3 °F 58 °F 30.27 in Calm     99% 0.00 in 0 W/m2
20:29 58.2 °F 58 °F 30.27 in Calm     99% 0.00 in 0 W/m2
20:34 58.1 °F 57.8 °F 30.27 in Calm     99% 0.00 in 0 W/m2
20:39 58.1 °F 57.8 °F 30.27 in Calm     99% 0.00 in 0 W/m2
20:44 58.1 °F 58 °F 30.28 in Calm     99.6% 0.00 in 0 W/m2
20:49 58.1 °F 58.1 °F 30.28 in Calm     100% 0.00 in 0 W/m2
20:54 58 °F 58 °F 30.28 in Calm     100% 0.00 in 0 W/m2
20:59 58 °F 58 °F 30.28 in Calm     100% 0.00 in 0 W/m2
21:04 58 °F 58 °F 30.28 in Calm     100% 0.00 in 0 W/m2
21:09 58 °F 58 °F 30.28 in Calm     100% 0.00 in 0 W/m2
21:14 58 °F 58 °F 30.28 in Calm     100% 0.00 in 0 W/m2
21:19 58 °F 58 °F 30.28 in Calm     100% 0.00 in 0 W/m2
21:24 58 °F 58 °F 30.28 in Calm     100% 0.00 in 0 W/m2
21:29 58 °F 58 °F 30.29 in Calm     100% 0.00 in 0 W/m2
21:34 58 °F 58 °F 30.29 in Calm     100% 0.00 in 0 W/m2
21:39 58 °F 58 °F 30.29 in Calm     100% 0.00 in 0 W/m2
21:44 58 °F 58 °F 30.29 in Calm     100% 0.00 in 0 W/m2
21:49 58 °F 58 °F 30.29 in Calm     100% 0.00 in 0 W/m2
21:54 58 °F 58 °F 30.29 in Calm     100% 0.00 in 0 W/m2
21:59 58 °F 58 °F 30.30 in Calm     100% 0.00 in 0 W/m2
22:04 58 °F 58 °F 30.30 in Calm     100% 0.00 in 0 W/m2
Lisbon, New Hampshire, USA
Compliments of Weather Underground - 4 mb